createdAt,value
2023-02-07T00:02:10.780Z,90.38
2023-02-07T00:05:08.872Z,89.10
2023-02-07T00:08:07.765Z,85.70
2023-02-07T00:11:16.936Z,96.60
2023-02-07T00:14:14.877Z,79.60
2023-02-07T00:17:12.728Z,88.53
2023-02-07T00:20:11.206Z,92.18
2023-02-07T00:23:08.849Z,115.60
2023-02-07T00:26:08.473Z,121.85
2023-02-07T00:29:06.478Z,108.95
2023-02-07T00:32:04.372Z,123.80
2023-02-07T00:35:02.855Z,124.45
2023-02-07T00:38:00.536Z,129.45
2023-02-07T00:40:58.626Z,160.30
2023-02-07T00:43:56.554Z,137.15
2023-02-07T00:46:54.173Z,148.48
2023-02-07T00:49:51.905Z,140.30
2023-02-07T00:52:49.714Z,123.45
2023-02-07T00:55:47.612Z,127.63
2023-02-07T00:58:45.266Z,142.77
2023-02-07T01:01:43.035Z,191.88
2023-02-07T01:04:40.697Z,195.85
2023-02-07T01:07:38.433Z,182.65
2023-02-07T01:10:36.953Z,186.60
2023-02-07T01:13:35.261Z,180.23
2023-02-07T01:16:35.229Z,200.07
2023-02-07T01:19:32.992Z,193.48
2023-02-07T01:22:30.674Z,186.02
2023-02-07T01:25:28.724Z,190.70
2023-02-07T01:28:26.383Z,204.05
2023-02-07T01:31:25.162Z,201.68
2023-02-07T01:34:23.022Z,178.60
2023-02-07T01:37:20.892Z,184.85
2023-02-07T01:40:18.928Z,196.77
2023-02-07T01:43:23.254Z,205.65
2023-02-07T01:46:20.961Z,187.05
2023-02-07T01:49:26.445Z,182.23
2023-02-07T01:52:38.288Z,192.52
2023-02-07T01:55:38.996Z,191.88
2023-02-07T01:58:38.430Z,193.93
2023-02-07T02:01:36.699Z,196.07
2023-02-07T02:04:34.441Z,181.10
2023-02-07T02:07:33.474Z,181.48
2023-02-07T02:10:56.432Z,166.88
2023-02-07T02:14:19.219Z,164.07
2023-02-07T02:17:34.299Z,183.63
2023-02-07T02:20:49.948Z,179.93
2023-02-07T02:24:08.841Z,170.65
2023-02-07T02:27:25.286Z,165.30
2023-02-07T02:30:41.558Z,156.68
2023-02-07T02:34:03.729Z,138.50
2023-02-07T02:37:10.394Z,144.55
2023-02-07T02:40:08.158Z,149.18
2023-02-07T02:43:29.400Z,143.85
2023-02-07T02:46:35.465Z,129.90
2023-02-07T02:49:35.118Z,152.40
2023-02-07T02:52:49.556Z,150.27
2023-02-07T02:56:34.364Z,179.02
2023-02-07T02:59:44.311Z,151.65
2023-02-07T03:02:49.741Z,170.07
2023-02-07T03:06:08.016Z,174.32
2023-02-07T03:09:20.182Z,161.13
2023-02-07T03:12:39.176Z,167.50
2023-02-07T03:16:08.038Z,164.82
2023-02-07T03:19:19.586Z,168.95
2023-02-07T03:22:21.749Z,161.43
2023-02-07T03:25:22.153Z,187.27
2023-02-07T03:28:21.438Z,186.85
2023-02-07T03:31:23.727Z,198.02
2023-02-07T03:34:46.855Z,200.77
2023-02-07T03:37:51.719Z,207.75
2023-02-07T03:40:56.381Z,198.48
2023-02-07T03:43:55.937Z,220.40
2023-02-07T03:46:56.137Z,243.93
2023-02-07T03:49:55.651Z,231.98
2023-02-07T03:52:53.463Z,226.25
2023-02-07T03:55:52.011Z,240.23
2023-02-07T03:58:49.649Z,248.65
2023-02-07T04:01:47.601Z,227.52
2023-02-07T04:04:45.567Z,285.67
2023-02-07T04:07:44.043Z,224.88
2023-02-07T04:10:41.649Z,247.63
2023-02-07T04:13:39.626Z,217.70
2023-02-07T04:16:37.242Z,229.13
2023-02-07T04:19:35.566Z,242.10
2023-02-07T04:22:33.522Z,255.68
2023-02-07T04:25:31.409Z,231.55
2023-02-07T04:28:30.023Z,251.43
2023-02-07T04:31:27.847Z,224.55
2023-02-07T04:34:26.344Z,245.57
2023-02-07T04:37:24.166Z,244.88
2023-02-07T04:40:21.922Z,242.23
2023-02-07T04:43:19.959Z,280.30
2023-02-07T04:46:17.570Z,249.05
2023-02-07T04:49:15.364Z,236.27
2023-02-07T04:52:12.971Z,230.15
2023-02-07T04:55:11.035Z,244.68
2023-02-07T04:58:08.995Z,237.18
2023-02-07T05:01:06.744Z,232.02
2023-02-07T05:04:04.722Z,234.90
2023-02-07T05:07:02.611Z,206.93
2023-02-07T05:10:00.661Z,210.50
2023-02-07T05:12:58.433Z,204.80
2023-02-07T05:15:56.193Z,158.13
2023-02-07T05:18:54.020Z,112.00
2023-02-07T05:21:51.801Z,69.78
2023-02-07T05:24:49.472Z,57.40
2023-02-07T05:27:47.426Z,107.03
2023-02-07T05:30:45.241Z,74.18
2023-02-07T05:33:42.995Z,51.17
2023-02-07T05:36:41.468Z,43.33
2023-02-07T05:39:39.297Z,40.10
2023-02-07T05:42:37.226Z,36.53
2023-02-07T05:45:35.558Z,34.20
2023-02-07T05:48:33.826Z,38.30
2023-02-07T05:51:31.568Z,34.65
2023-02-07T05:54:29.356Z,28.77
2023-02-07T05:57:27.430Z,27.73
2023-02-07T06:00:25.871Z,23.52
2023-02-07T06:03:23.603Z,21.70
2023-02-07T06:06:22.882Z,22.40
2023-02-07T06:09:20.800Z,24.10
2023-02-07T06:12:18.649Z,20.40
2023-02-07T06:15:16.517Z,23.10
2023-02-07T06:18:16.340Z,18.98
2023-02-07T06:21:14.108Z,18.83
2023-02-07T06:24:11.824Z,24.25
2023-02-07T06:27:09.392Z,19.83
2023-02-07T06:30:08.565Z,20.63
2023-02-07T06:33:06.216Z,22.55
2023-02-07T06:36:04.223Z,15.30
2023-02-07T06:39:01.987Z,20.05
2023-02-07T06:41:59.767Z,20.33
2023-02-07T06:44:57.601Z,22.83
2023-02-07T06:47:55.482Z,18.27
2023-02-07T06:50:53.679Z,23.92
2023-02-07T06:53:51.544Z,38.05
2023-02-07T06:56:49.442Z,50.75
2023-02-07T06:59:47.163Z,55.47
2023-02-07T07:02:44.862Z,44.67
2023-02-07T07:05:43.443Z,36.92
2023-02-07T07:08:41.845Z,36.20
2023-02-07T07:11:43.524Z,47.42
2023-02-07T07:14:41.364Z,42.72
2023-02-07T07:17:39.547Z,45.83
2023-02-07T07:20:37.226Z,43.13
2023-02-07T07:23:35.181Z,28.30
2023-02-07T07:26:47.896Z,31.45
2023-02-07T07:29:47.733Z,30.70
2023-02-07T07:32:45.577Z,40.75
2023-02-07T07:35:43.269Z,29.05
2023-02-07T07:38:44.423Z,22.48
2023-02-07T07:41:43.993Z,27.67
2023-02-07T07:44:41.819Z,24.30
2023-02-07T07:47:39.958Z,29.75
2023-02-07T07:50:38.974Z,28.15
2023-02-07T07:53:36.918Z,26.08
2023-02-07T07:56:36.109Z,25.00
2023-02-07T07:59:34.234Z,36.50
2023-02-07T08:02:32.281Z,40.22
2023-02-07T08:05:29.986Z,37.47
2023-02-07T08:08:27.841Z,40.25
2023-02-07T08:11:25.730Z,42.53
2023-02-07T08:14:23.541Z,48.17
2023-02-07T08:17:21.306Z,47.95
2023-02-07T08:20:18.998Z,46.85
2023-02-07T08:23:16.780Z,50.63
2023-02-07T08:26:14.588Z,61.72
2023-02-07T08:29:12.476Z,53.22
2023-02-07T08:32:10.121Z,65.05
2023-02-07T08:35:09.129Z,91.30
2023-02-07T08:38:07.020Z,103.32
2023-02-07T08:41:06.598Z,91.90
2023-02-07T08:44:04.510Z,73.88
2023-02-07T08:47:02.235Z,44.22
2023-02-07T08:49:59.831Z,51.35
2023-02-07T08:52:57.569Z,57.38
2023-02-07T08:55:55.213Z,49.83
2023-02-07T08:58:52.967Z,52.05
2023-02-07T09:01:50.622Z,44.47
2023-02-07T09:04:48.636Z,42.67
2023-02-07T09:07:46.391Z,36.22
2023-02-07T09:10:46.622Z,30.33
2023-02-07T09:13:46.919Z,36.78
2023-02-07T09:16:44.778Z,32.25
2023-02-07T09:19:42.410Z,28.10
2023-02-07T09:22:58.826Z,63.45
2023-02-07T09:26:02.922Z,47.03
2023-02-07T09:29:00.706Z,63.88
2023-02-07T09:31:58.591Z,144.48
2023-02-07T09:34:56.352Z,182.45
2023-02-07T09:37:55.106Z,163.52
2023-02-07T09:40:54.597Z,137.93
2023-02-07T09:44:12.640Z,185.85
2023-02-07T09:47:21.758Z,217.15
2023-02-07T09:50:26.364Z,196.75
2023-02-07T09:53:54.974Z,189.55
2023-02-07T09:56:57.625Z,178.68
2023-02-07T10:00:03.758Z,212.32
2023-02-07T10:03:17.059Z,194.73
2023-02-07T10:06:22.884Z,189.35
2023-02-07T10:09:28.547Z,212.85
2023-02-07T10:12:52.594Z,245.05
2023-02-07T10:16:05.055Z,218.48
2023-02-07T10:19:29.339Z,232.98
2023-02-07T10:23:04.559Z,202.95
2023-02-07T10:26:38.997Z,221.43
2023-02-07T10:29:48.934Z,205.70
2023-02-07T10:32:48.137Z,205.88
2023-02-07T10:35:48.462Z,193.05
2023-02-07T10:39:10.077Z,176.05
2023-02-07T10:42:15.632Z,138.57
2023-02-07T10:45:16.403Z,120.03
2023-02-07T10:48:20.435Z,114.40
2023-02-07T10:51:28.641Z,117.10
2023-02-07T10:54:26.873Z,108.60
2023-02-07T10:57:25.378Z,97.03
2023-02-07T11:00:30.437Z,83.55
2023-02-07T11:03:28.542Z,83.75
2023-02-07T11:06:29.630Z,92.60
2023-02-07T11:09:28.332Z,113.30
2023-02-07T11:12:26.621Z,135.07
2023-02-07T11:15:31.635Z,137.77
2023-02-07T11:18:45.806Z,145.07
2023-02-07T11:21:45.554Z,139.57
2023-02-07T11:24:44.186Z,148.35
2023-02-07T11:27:42.971Z,153.82
2023-02-07T11:30:41.174Z,134.00
2023-02-07T11:33:39.567Z,137.30
2023-02-07T11:36:37.720Z,153.27
2023-02-07T11:39:35.431Z,142.25
2023-02-07T11:42:33.070Z,142.93
2023-02-07T11:45:34.805Z,144.85
2023-02-07T11:48:37.198Z,141.63
2023-02-07T11:51:35.853Z,153.80
2023-02-07T11:54:34.248Z,165.85
2023-02-07T11:57:34.160Z,177.65
2023-02-07T12:00:37.333Z,179.02
2023-02-07T12:03:48.045Z,193.18
2023-02-07T12:07:12.838Z,188.82
2023-02-07T12:10:23.997Z,174.57
2023-02-07T12:13:34.164Z,170.30
2023-02-07T12:16:47.862Z,160.82
2023-02-07T12:20:01.365Z,173.95
2023-02-07T12:23:41.362Z,169.23
2023-02-07T12:26:55.251Z,153.70
2023-02-07T12:30:06.349Z,157.05
2023-02-07T12:33:22.327Z,144.73
2023-02-07T12:36:34.554Z,157.52
2023-02-07T12:39:43.291Z,159.10
2023-02-07T12:42:46.086Z,154.60
2023-02-07T12:45:58.410Z,139.82
2023-02-07T12:49:24.598Z,145.93
2023-02-07T12:52:38.308Z,144.98
2023-02-07T12:55:55.557Z,168.60
2023-02-07T12:59:19.679Z,175.55
2023-02-07T13:02:44.082Z,171.48
2023-02-07T13:05:57.827Z,182.10
2023-02-07T13:09:01.618Z,179.25
2023-02-07T13:12:18.101Z,178.63
2023-02-07T13:15:34.606Z,170.40
2023-02-07T13:18:52.610Z,175.68
2023-02-07T13:22:09.552Z,163.52
2023-02-07T13:25:14.324Z,163.25
2023-02-07T13:28:30.814Z,154.30
2023-02-07T13:31:38.762Z,160.75
2023-02-07T13:35:08.252Z,171.23
2023-02-07T13:38:07.822Z,146.98
2023-02-07T13:41:24.330Z,145.30
2023-02-07T13:44:33.830Z,138.77
2023-02-07T13:48:16.302Z,147.25
2023-02-07T13:51:20.053Z,152.90
2023-02-07T13:54:55.751Z,134.02
2023-02-07T13:58:12.398Z,132.55
2023-02-07T14:01:19.888Z,141.45
2023-02-07T14:04:19.927Z,153.18
2023-02-07T14:07:30.225Z,176.05
2023-02-07T14:10:47.100Z,163.18
2023-02-07T14:13:45.115Z,157.98
2023-02-07T14:16:53.810Z,153.10
2023-02-07T14:19:55.014Z,146.07
2023-02-07T14:22:52.682Z,141.52
2023-02-07T14:25:52.582Z,147.32
2023-02-07T14:28:50.696Z,121.13
2023-02-07T14:31:52.289Z,127.40
2023-02-07T14:35:19.703Z,122.93
2023-02-07T14:38:59.137Z,123.07
2023-02-07T14:42:05.606Z,126.97
2023-02-07T14:45:03.683Z,95.97
2023-02-07T14:48:02.124Z,95.07
2023-02-07T14:51:00.027Z,97.63
2023-02-07T14:54:35.238Z,114.80
2023-02-07T14:58:00.331Z,99.70
2023-02-07T15:00:59.867Z,89.22
2023-02-07T15:04:07.044Z,116.68
2023-02-07T15:07:04.678Z,117.32
2023-02-07T15:10:02.374Z,137.05
2023-02-07T15:13:01.408Z,111.90
2023-02-07T15:16:08.736Z,113.00
2023-02-07T15:19:09.440Z,102.85
2023-02-07T15:22:23.965Z,72.70
2023-02-07T15:25:28.480Z,67.45
2023-02-07T15:31:26.382Z,49.47
2023-02-07T15:34:32.238Z,48.13
2023-02-07T15:37:29.947Z,52.60
2023-02-07T15:40:27.950Z,72.13
2023-02-07T15:43:34.071Z,73.22
2023-02-07T15:46:46.693Z,75.97
2023-02-07T15:49:44.353Z,82.90
2023-02-07T15:52:45.541Z,150.98
2023-02-07T15:55:47.139Z,113.30
2023-02-07T15:58:44.990Z,71.22
2023-02-07T16:01:43.154Z,82.57
2023-02-07T16:04:41.050Z,92.68
2023-02-07T16:07:42.902Z,92.35
2023-02-07T16:10:41.283Z,82.50
2023-02-07T16:14:07.799Z,111.15
2023-02-07T16:17:05.493Z,170.43
2023-02-07T16:20:03.290Z,180.73
2023-02-07T16:23:07.501Z,188.50
2023-02-07T16:26:05.928Z,321.42
2023-02-07T16:29:07.184Z,337.08
2023-02-07T16:32:05.019Z,324.33
2023-02-07T16:35:02.791Z,308.20
2023-02-07T16:38:00.464Z,293.63
2023-02-07T16:40:58.199Z,320.80
2023-02-07T16:43:56.228Z,310.65
2023-02-07T16:46:53.954Z,335.52
2023-02-07T16:49:51.669Z,319.92
2023-02-07T16:52:51.026Z,354.85
2023-02-07T16:55:48.792Z,312.40
2023-02-07T16:58:46.549Z,305.60
2023-02-07T17:01:44.576Z,293.70
2023-02-07T17:04:42.396Z,323.80
2023-02-07T17:07:40.050Z,301.25
2023-02-07T17:10:38.134Z,294.63
2023-02-07T17:13:35.943Z,290.67
2023-02-07T17:16:33.972Z,270.48
2023-02-07T17:19:31.777Z,265.35
2023-02-07T17:22:29.451Z,268.05
2023-02-07T17:25:29.670Z,269.15
2023-02-07T17:28:27.763Z,260.88
2023-02-07T17:31:25.839Z,244.35
2023-02-07T17:34:23.622Z,249.05
2023-02-07T17:37:21.711Z,230.40
2023-02-07T17:40:37.634Z,246.23
2023-02-07T17:43:36.031Z,264.33
2023-02-07T17:46:36.239Z,252.48
2023-02-07T17:49:33.859Z,286.20
2023-02-07T17:52:31.577Z,274.60
2023-02-07T17:55:31.194Z,292.25
2023-02-07T17:58:29.125Z,259.30
2023-02-07T18:01:27.242Z,283.83
2023-02-07T18:04:24.978Z,298.95
2023-02-07T18:07:22.569Z,292.73
2023-02-07T18:10:26.759Z,268.80
2023-02-07T18:13:24.412Z,242.25
2023-02-07T18:16:24.704Z,244.32
2023-02-07T18:19:22.490Z,251.60
2023-02-07T18:22:20.726Z,269.77
2023-02-07T18:25:18.464Z,276.42
2023-02-07T18:28:16.956Z,278.98
2023-02-07T18:31:24.119Z,279.27
2023-02-07T18:34:22.337Z,266.20
2023-02-07T18:37:21.630Z,297.95
2023-02-07T18:40:19.444Z,288.42
2023-02-07T18:43:17.075Z,277.23
2023-02-07T18:46:20.184Z,277.63
2023-02-07T18:49:17.873Z,302.58
2023-02-07T18:52:16.155Z,264.50
2023-02-07T18:55:13.880Z,251.73
2023-02-07T18:58:11.713Z,275.88
2023-02-07T19:01:15.709Z,261.15
2023-02-07T19:04:13.450Z,254.05
2023-02-07T19:07:11.260Z,271.65
2023-02-07T19:10:12.706Z,243.48
2023-02-07T19:13:10.602Z,251.82
2023-02-07T19:16:19.500Z,237.35
2023-02-07T19:19:17.175Z,239.50
2023-02-07T19:22:17.876Z,244.85
2023-02-07T19:25:19.592Z,261.52
2023-02-07T19:28:17.476Z,247.52
2023-02-07T19:31:18.479Z,212.95
2023-02-07T19:34:16.194Z,217.88
2023-02-07T19:37:13.818Z,215.20
2023-02-07T19:40:12.149Z,228.38
2023-02-07T19:43:10.059Z,234.35
2023-02-07T19:46:08.093Z,245.18
2023-02-07T19:49:05.995Z,238.43
2023-02-07T19:52:03.833Z,232.63
2023-02-07T19:55:01.862Z,216.18
2023-02-07T19:58:02.598Z,219.40
2023-02-07T20:01:00.862Z,216.25
2023-02-07T20:03:58.766Z,206.93
2023-02-07T20:07:00.484Z,194.23
2023-02-07T20:09:58.351Z,203.50
2023-02-07T20:12:55.948Z,188.30
2023-02-07T20:15:53.637Z,201.25
2023-02-07T20:18:52.721Z,175.10
2023-02-07T20:21:50.441Z,167.18
2023-02-07T20:24:48.001Z,156.68
2023-02-07T20:27:45.843Z,139.45
2023-02-07T20:30:45.601Z,169.40
2023-02-07T20:33:44.408Z,165.45
2023-02-07T20:36:43.860Z,179.98
2023-02-07T20:39:41.657Z,196.18
2023-02-07T20:42:39.317Z,205.45
2023-02-07T20:45:37.289Z,185.40
2023-02-07T20:48:35.252Z,177.10
2023-02-07T20:51:33.195Z,191.60
2023-02-07T20:54:31.540Z,201.68
2023-02-07T20:57:29.293Z,193.85
2023-02-07T21:00:26.966Z,202.80
2023-02-07T21:03:24.749Z,183.13
2023-02-07T21:06:25.613Z,216.98
2023-02-07T21:09:23.618Z,214.73
2023-02-07T21:12:21.338Z,207.55
2023-02-07T21:15:19.142Z,208.13
2023-02-07T21:18:17.378Z,234.10
2023-02-07T21:21:16.167Z,211.68
2023-02-07T21:24:17.666Z,215.68
2023-02-07T21:27:15.461Z,223.38
2023-02-07T21:30:13.350Z,237.32
2023-02-07T21:33:14.054Z,233.13
2023-02-07T21:36:17.796Z,220.95
2023-02-07T21:39:16.414Z,206.27
2023-02-07T21:42:14.357Z,222.02
2023-02-07T21:45:12.090Z,197.70
2023-02-07T21:48:09.707Z,219.93
2023-02-07T21:51:11.082Z,211.88
2023-02-07T21:54:09.277Z,227.23
2023-02-07T21:57:06.966Z,202.98
2023-02-07T22:00:08.527Z,195.15
2023-02-07T22:03:06.410Z,194.63
2023-02-07T22:06:04.636Z,207.50
2023-02-07T22:09:06.076Z,209.48
2023-02-07T22:12:03.842Z,212.77
2023-02-07T22:15:01.674Z,220.90
2023-02-07T22:17:59.262Z,191.80
2023-02-07T22:21:03.075Z,197.88
2023-02-07T22:24:01.814Z,198.48
2023-02-07T22:26:59.613Z,193.82
2023-02-07T22:29:57.195Z,212.32
2023-02-07T22:32:54.929Z,187.63
2023-02-07T22:35:52.717Z,189.73
2023-02-07T22:38:51.148Z,190.02
2023-02-07T22:41:48.980Z,211.55
2023-02-07T22:44:46.661Z,190.13
2023-02-07T22:47:44.282Z,166.63
2023-02-07T22:50:44.885Z,159.73
2023-02-07T22:53:42.619Z,131.48
2023-02-07T22:56:40.506Z,131.73
2023-02-07T22:59:38.455Z,166.25
2023-02-07T23:02:36.746Z,149.35
2023-02-07T23:05:37.409Z,169.65
2023-02-07T23:08:35.135Z,153.87
2023-02-07T23:11:33.278Z,164.68
2023-02-07T23:14:30.960Z,169.65
2023-02-07T23:17:29.433Z,145.40
2023-02-07T23:20:28.009Z,127.40
2023-02-07T23:23:25.614Z,124.27
2023-02-07T23:26:25.202Z,121.68
2023-02-07T23:29:22.805Z,113.22
2023-02-07T23:32:20.568Z,136.57
2023-02-07T23:35:18.261Z,141.25
2023-02-07T23:38:16.726Z,136.98
2023-02-07T23:41:15.042Z,157.70
2023-02-07T23:44:12.793Z,156.32
2023-02-07T23:47:10.436Z,150.15
2023-02-07T23:50:08.601Z,178.45
2023-02-07T23:53:06.434Z,145.18
2023-02-07T23:56:05.990Z,148.82
2023-02-07T23:59:03.582Z,170.10
